createdAt,value
2022-11-20T00:01:29.886Z,87.10
2022-11-20T00:03:58.873Z,87.25
2022-11-20T00:06:27.237Z,87.46
2022-11-20T00:08:56.760Z,87.90
2022-11-20T00:11:25.558Z,88.74
2022-11-20T00:13:54.695Z,89.04
2022-11-20T00:16:25.040Z,89.66
2022-11-20T00:18:52.508Z,89.05
2022-11-20T00:21:24.101Z,88.08
2022-11-20T00:23:53.146Z,89.22
2022-11-20T00:26:22.809Z,88.58
2022-11-20T00:28:57.762Z,87.21
2022-11-20T00:31:24.666Z,86.97
2022-11-20T00:33:51.678Z,86.45
2022-11-20T00:36:20.534Z,85.51
2022-11-20T00:38:47.415Z,85.25
2022-11-20T00:41:16.522Z,87.30
2022-11-20T00:43:43.845Z,86.88
2022-11-20T00:46:16.409Z,86.92
2022-11-20T00:48:43.435Z,87.68
2022-11-20T00:51:12.279Z,86.67
2022-11-20T00:53:38.836Z,87.17
2022-11-20T00:56:08.241Z,86.37
2022-11-20T00:58:37.922Z,86.01
2022-11-20T01:01:05.709Z,86.56
2022-11-20T01:03:37.348Z,85.75
2022-11-20T01:06:06.415Z,86.71
2022-11-20T01:08:34.590Z,85.16
2022-11-20T01:11:21.557Z,86.14
2022-11-20T01:13:49.913Z,85.41
2022-11-20T01:16:19.517Z,86.88
2022-11-20T01:18:48.094Z,86.31
2022-11-20T01:21:23.741Z,85.34
2022-11-20T01:23:51.482Z,85.25
2022-11-20T01:26:20.600Z,85.34
2022-11-20T01:28:47.141Z,84.96
2022-11-20T01:31:22.140Z,85.35
2022-11-20T01:33:51.059Z,85.27
2022-11-20T01:36:19.434Z,84.96
2022-11-20T01:38:46.113Z,84.86
2022-11-20T01:41:36.721Z,84.83
2022-11-20T01:44:04.664Z,84.96
2022-11-20T01:46:34.468Z,84.66
2022-11-20T01:49:17.453Z,83.11
2022-11-20T01:51:53.736Z,82.98
2022-11-20T01:54:26.680Z,83.77
2022-11-20T01:56:57.789Z,83.49
2022-11-20T01:59:26.986Z,84.42
2022-11-20T02:01:54.261Z,84.32
2022-11-20T02:04:21.932Z,84.76
2022-11-20T02:06:59.017Z,85.25
2022-11-20T02:09:25.667Z,86.03
2022-11-20T02:11:53.156Z,85.78
2022-11-20T02:14:20.394Z,85.38
2022-11-20T02:16:48.911Z,85.11
2022-11-20T02:19:30.594Z,84.83
2022-11-20T02:22:14.059Z,85.64
2022-11-20T02:24:43.018Z,85.68
2022-11-20T02:27:13.165Z,85.74
2022-11-20T02:29:48.268Z,84.65
2022-11-20T02:32:34.128Z,84.74
2022-11-20T02:35:10.953Z,84.73
2022-11-20T02:37:41.291Z,84.76
2022-11-20T02:40:08.543Z,85.29
2022-11-20T02:42:35.673Z,85.34
2022-11-20T02:45:02.173Z,86.33
2022-11-20T02:47:28.684Z,86.23
2022-11-20T02:49:55.161Z,86.58
2022-11-20T02:52:21.637Z,86.89
2022-11-20T02:54:48.157Z,87.45
2022-11-20T02:57:14.683Z,87.93
2022-11-20T02:59:41.201Z,87.35
2022-11-20T03:02:07.766Z,87.42
2022-11-20T03:04:34.286Z,87.14
2022-11-20T03:07:00.957Z,87.46
2022-11-20T03:09:27.526Z,87.65
2022-11-20T03:11:54.192Z,86.80
2022-11-20T03:14:20.740Z,86.99
2022-11-20T03:16:47.208Z,87.59
2022-11-20T03:19:14.509Z,87.81
2022-11-20T03:21:41.185Z,88.56
2022-11-20T03:24:07.930Z,88.01
2022-11-20T03:26:34.640Z,87.81
2022-11-20T03:29:03.616Z,88.59
2022-11-20T03:31:33.413Z,88.50
2022-11-20T03:34:00.866Z,87.35
2022-11-20T03:36:28.344Z,87.05
2022-11-20T03:38:56.205Z,86.94
2022-11-20T03:41:25.717Z,87.08
2022-11-20T03:44:01.799Z,86.61
2022-11-20T03:46:28.817Z,85.83
2022-11-20T03:48:55.839Z,85.76
2022-11-20T03:51:23.397Z,86.17
2022-11-20T03:53:51.827Z,86.12
2022-11-20T03:56:21.203Z,86.46
2022-11-20T03:58:47.715Z,86.11
2022-11-20T04:01:19.513Z,85.95
2022-11-20T04:03:46.856Z,85.73
2022-11-20T04:06:16.448Z,85.93
2022-11-20T04:08:43.303Z,85.66
2022-11-20T04:11:10.748Z,86.84
2022-11-20T04:13:37.676Z,86.60
2022-11-20T04:16:05.184Z,86.66
2022-11-20T04:18:31.753Z,87.47
2022-11-20T04:20:58.857Z,86.86
2022-11-20T04:23:28.674Z,85.88
2022-11-20T04:25:55.735Z,85.58
2022-11-20T04:28:22.206Z,85.15
2022-11-20T04:30:48.717Z,84.77
2022-11-20T04:33:15.221Z,84.50
2022-11-20T04:35:41.734Z,84.00
2022-11-20T04:38:08.239Z,84.05
2022-11-20T04:40:34.715Z,84.38
2022-11-20T04:43:01.225Z,84.65
2022-11-20T04:45:27.688Z,85.58
2022-11-20T04:47:54.185Z,85.93
2022-11-20T04:50:20.727Z,86.01
2022-11-20T04:52:47.197Z,86.79
2022-11-20T04:55:13.678Z,86.60
2022-11-20T04:57:40.391Z,86.43
2022-11-20T05:00:07.941Z,87.50
2022-11-20T05:02:34.486Z,86.63
2022-11-20T05:05:00.955Z,87.34
2022-11-20T05:07:27.491Z,87.47
2022-11-20T05:09:54.038Z,87.02
2022-11-20T05:12:20.583Z,87.23
2022-11-20T05:14:47.057Z,86.14
2022-11-20T05:17:13.775Z,86.94
2022-11-20T05:19:40.267Z,86.17
2022-11-20T05:22:06.738Z,86.37
2022-11-20T05:24:33.214Z,84.63
2022-11-20T05:26:59.714Z,85.35
2022-11-20T05:29:26.174Z,85.47
2022-11-20T05:31:52.655Z,84.81
2022-11-20T05:34:19.130Z,85.35
2022-11-20T05:36:45.596Z,84.59
2022-11-20T05:39:12.119Z,84.41
2022-11-20T05:41:38.611Z,83.53
2022-11-20T05:44:05.301Z,84.23
2022-11-20T05:46:31.859Z,83.90
2022-11-20T05:48:59.251Z,83.99
2022-11-20T05:51:26.498Z,83.84
2022-11-20T05:53:53.013Z,83.77
2022-11-20T05:56:21.574Z,82.90
2022-11-20T05:58:49.426Z,83.71
2022-11-20T06:01:26.486Z,84.35
2022-11-20T06:03:54.746Z,83.74
2022-11-20T06:06:21.852Z,84.32
2022-11-20T06:08:48.859Z,84.62
2022-11-20T06:11:16.509Z,83.33
2022-11-20T06:13:43.561Z,83.20
2022-11-20T06:16:12.052Z,84.45
2022-11-20T06:18:39.189Z,83.21
2022-11-20T06:21:07.250Z,83.13
2022-11-20T06:23:35.258Z,83.39
2022-11-20T06:26:03.798Z,82.67
2022-11-20T06:28:30.393Z,83.28
2022-11-20T06:30:56.880Z,83.57
2022-11-20T06:33:23.365Z,84.56
2022-11-20T06:35:49.834Z,84.21
2022-11-20T06:38:16.287Z,84.51
2022-11-20T06:40:43.623Z,83.84
2022-11-20T06:43:13.106Z,85.08
2022-11-20T06:45:39.607Z,84.66
2022-11-20T06:48:06.231Z,83.91
2022-11-20T06:50:32.754Z,83.35
2022-11-20T06:53:03.398Z,84.56
2022-11-20T06:55:30.219Z,84.39
2022-11-20T06:57:56.686Z,84.44
2022-11-20T07:00:23.186Z,84.32
2022-11-20T07:02:49.715Z,83.84
2022-11-20T07:05:16.499Z,83.96
2022-11-20T07:07:43.286Z,84.49
2022-11-20T07:10:10.820Z,85.07
2022-11-20T07:12:37.317Z,85.12
2022-11-20T07:15:04.129Z,83.41
2022-11-20T07:17:30.671Z,84.11
2022-11-20T07:19:57.189Z,84.04
2022-11-20T07:22:26.246Z,83.66
2022-11-20T07:24:52.721Z,83.82
2022-11-20T07:27:19.212Z,82.85
2022-11-20T07:29:45.712Z,83.17
2022-11-20T07:32:12.219Z,82.45
2022-11-20T07:34:40.675Z,81.92
2022-11-20T07:37:10.321Z,81.93
2022-11-20T07:39:37.066Z,81.47
2022-11-20T07:42:03.868Z,81.98
2022-11-20T07:44:32.677Z,81.88
2022-11-20T07:46:59.183Z,82.98
2022-11-20T07:49:25.627Z,82.36
2022-11-20T07:51:58.273Z,82.36
2022-11-20T07:54:27.369Z,81.81
2022-11-20T07:56:54.958Z,82.07
2022-11-20T07:59:21.593Z,81.82
2022-11-20T08:01:48.355Z,81.90
2022-11-20T08:04:17.085Z,80.34
2022-11-20T08:06:43.797Z,81.04
2022-11-20T08:09:10.646Z,81.03
2022-11-20T08:11:55.586Z,81.34
2022-11-20T08:14:22.033Z,81.98
2022-11-20T08:16:50.424Z,82.37
2022-11-20T08:19:18.991Z,82.26
2022-11-20T08:21:45.851Z,82.04
2022-11-20T08:24:12.681Z,81.66
2022-11-20T08:26:40.471Z,81.33
2022-11-20T08:29:06.987Z,81.17
2022-11-20T08:31:33.499Z,82.15
2022-11-20T08:34:00.076Z,81.28
2022-11-20T08:36:26.796Z,81.53
2022-11-20T08:38:55.537Z,80.33
2022-11-20T08:41:26.346Z,80.47
2022-11-20T08:44:00.924Z,81.16
2022-11-20T08:46:31.763Z,80.02
2022-11-20T08:48:58.267Z,80.24
2022-11-20T08:51:24.759Z,79.99
2022-11-20T08:53:51.298Z,79.67
2022-11-20T08:56:18.686Z,79.31
2022-11-20T08:59:16.120Z,79.32
2022-11-20T09:01:32.062Z,79.61
2022-11-20T09:04:00.452Z,79.73
2022-11-20T09:06:27.171Z,79.62
2022-11-20T09:08:54.771Z,80.41
2022-11-20T09:11:21.942Z,80.42
2022-11-20T09:13:48.420Z,79.57
2022-11-20T09:16:15.137Z,79.25
2022-11-20T09:18:41.654Z,80.13
2022-11-20T09:21:13.789Z,80.49
2022-11-20T09:23:40.736Z,80.62
2022-11-20T09:26:11.511Z,79.46
2022-11-20T09:28:39.536Z,79.88
2022-11-20T09:31:07.721Z,79.28
2022-11-20T09:33:34.381Z,79.28
2022-11-20T09:36:00.928Z,79.38
2022-11-20T09:38:27.512Z,78.86
2022-11-20T09:41:05.948Z,79.20
2022-11-20T09:43:47.630Z,78.79
2022-11-20T09:46:28.253Z,77.87
2022-11-20T09:49:21.280Z,78.41
2022-11-20T09:51:51.112Z,78.53
2022-11-20T09:54:23.675Z,77.50
2022-11-20T09:56:56.085Z,78.07
2022-11-20T09:59:45.330Z,77.23
2022-11-20T10:02:29.637Z,77.06
2022-11-20T10:05:19.294Z,77.78
2022-11-20T10:07:56.637Z,77.55
2022-11-20T10:10:31.946Z,77.33
2022-11-20T10:13:10.663Z,77.07
2022-11-20T10:16:47.580Z,76.13
2022-11-20T10:19:32.070Z,76.50
2022-11-20T10:22:15.568Z,76.48
2022-11-20T10:24:47.466Z,76.08
2022-11-20T10:27:24.296Z,76.09
2022-11-20T10:30:12.552Z,76.38
2022-11-20T10:32:39.981Z,76.22
2022-11-20T10:35:21.975Z,75.35
2022-11-20T10:37:56.093Z,75.60
2022-11-20T10:40:47.181Z,75.11
2022-11-20T10:43:27.513Z,74.93
2022-11-20T10:46:03.215Z,74.99
2022-11-20T10:48:32.574Z,73.82
2022-11-20T10:51:25.257Z,73.60
2022-11-20T10:53:59.694Z,71.11
2022-11-20T10:56:30.645Z,71.78
2022-11-20T10:59:15.333Z,69.72
2022-11-20T11:01:44.885Z,71.15
2022-11-20T11:04:33.953Z,70.18
2022-11-20T11:07:10.673Z,70.40
2022-11-20T11:09:43.847Z,69.63
2022-11-20T11:12:11.358Z,69.42
2022-11-20T11:14:52.182Z,69.96
2022-11-20T11:17:28.206Z,69.82
2022-11-20T11:20:22.282Z,69.92
2022-11-20T11:22:51.848Z,69.93
2022-11-20T11:25:22.909Z,70.01
2022-11-20T11:27:51.053Z,70.06
2022-11-20T11:30:19.996Z,70.35
2022-11-20T11:32:46.645Z,71.36
2022-11-20T11:35:27.133Z,71.50
2022-11-20T11:38:03.193Z,73.13
2022-11-20T11:40:31.941Z,72.47
2022-11-20T11:43:02.034Z,73.61
2022-11-20T11:45:29.245Z,73.44
2022-11-20T11:47:59.379Z,74.60
2022-11-20T11:50:28.051Z,73.09
2022-11-20T11:53:18.826Z,74.45
2022-11-20T11:55:50.902Z,73.75
2022-11-20T11:58:46.189Z,74.17
2022-11-20T12:01:15.742Z,74.53
2022-11-20T12:03:43.949Z,74.69
2022-11-20T12:06:14.910Z,74.60
2022-11-20T12:09:13.137Z,75.24
2022-11-20T12:11:52.523Z,74.27
2022-11-20T12:14:38.605Z,74.69
2022-11-20T12:17:05.953Z,75.06
2022-11-20T12:19:35.447Z,73.90
2022-11-20T12:22:20.372Z,75.36
2022-11-20T12:25:09.850Z,75.19
2022-11-20T12:27:57.918Z,74.54
2022-11-20T12:30:25.732Z,75.69
2022-11-20T12:32:55.074Z,75.84
2022-11-20T12:35:24.683Z,75.24
2022-11-20T12:38:16.817Z,74.83
2022-11-20T12:41:05.639Z,74.86
2022-11-20T12:43:58.757Z,74.57
2022-11-20T12:46:48.929Z,75.06
2022-11-20T12:49:39.050Z,74.74
2022-11-20T12:52:40.472Z,75.20
2022-11-20T12:55:33.123Z,74.26
2022-11-20T12:58:28.884Z,74.42
2022-11-20T13:01:44.573Z,74.33
2022-11-20T13:04:27.122Z,74.86
2022-11-20T13:06:55.137Z,75.16
2022-11-20T13:09:23.556Z,75.29
2022-11-20T13:11:52.876Z,75.61
2022-11-20T13:14:33.413Z,76.19
2022-11-20T13:17:06.076Z,76.60
2022-11-20T13:19:34.148Z,75.86
2022-11-20T13:22:00.885Z,75.51
2022-11-20T13:24:31.212Z,75.39
2022-11-20T13:27:05.020Z,75.30
2022-11-20T13:29:33.005Z,75.69
2022-11-20T13:32:21.234Z,74.89
2022-11-20T13:34:55.387Z,75.95
2022-11-20T13:37:40.246Z,74.92
2022-11-20T13:40:09.445Z,75.38
2022-11-20T13:42:44.818Z,75.43
2022-11-20T13:45:25.321Z,75.16
2022-11-20T13:47:53.837Z,75.17
2022-11-20T13:50:29.070Z,74.58
2022-11-20T13:52:55.517Z,75.26
2022-11-20T13:55:37.773Z,75.46
2022-11-20T13:58:39.275Z,75.47
2022-11-20T14:01:15.318Z,75.34
2022-11-20T14:04:04.986Z,75.11
2022-11-20T14:06:35.518Z,76.05
2022-11-20T14:09:02.210Z,75.01
2022-11-20T14:11:30.871Z,75.12
2022-11-20T14:14:11.906Z,75.29
2022-11-20T14:16:38.483Z,74.78
2022-11-20T14:19:26.777Z,75.32
2022-11-20T14:22:07.159Z,74.31
2022-11-20T14:24:33.941Z,74.94
2022-11-20T14:27:00.743Z,75.12
2022-11-20T14:29:35.893Z,74.93
2022-11-20T14:32:04.542Z,75.76
2022-11-20T14:34:36.583Z,74.97
2022-11-20T14:37:06.592Z,76.07
2022-11-20T14:39:37.273Z,76.42
2022-11-20T14:42:21.554Z,76.56
2022-11-20T14:44:53.572Z,78.07
2022-11-20T14:47:26.170Z,77.31
2022-11-20T14:49:54.320Z,77.99
2022-11-20T14:52:25.622Z,77.49
2022-11-20T14:54:57.331Z,78.52
2022-11-20T14:57:28.285Z,79.20
2022-11-20T15:00:24.627Z,78.67
2022-11-20T15:02:52.682Z,78.86
2022-11-20T15:05:25.875Z,78.71
2022-11-20T15:08:13.585Z,80.37
2022-11-20T15:10:46.089Z,79.38
2022-11-20T15:13:15.689Z,80.40
2022-11-20T15:15:47.645Z,79.23
2022-11-20T15:18:17.556Z,80.05
2022-11-20T15:20:44.529Z,79.91
2022-11-20T15:23:13.484Z,79.39
2022-11-20T15:25:41.674Z,79.64
2022-11-20T15:28:20.775Z,81.03
2022-11-20T15:30:49.537Z,81.35
2022-11-20T15:33:17.374Z,80.36
2022-11-20T15:35:45.182Z,81.37
2022-11-20T15:38:11.997Z,81.05
2022-11-20T15:40:38.492Z,80.89
2022-11-20T15:43:12.573Z,80.81
2022-11-20T15:45:46.859Z,81.32
2022-11-20T15:48:25.909Z,81.50
2022-11-20T15:51:04.205Z,82.26
2022-11-20T15:53:30.792Z,80.71
2022-11-20T15:55:57.364Z,81.82
2022-11-20T15:58:25.139Z,80.56
2022-11-20T16:00:51.869Z,80.35
2022-11-20T16:03:21.881Z,81.02
2022-11-20T16:05:48.433Z,81.50
2022-11-20T16:08:15.708Z,80.03
2022-11-20T16:10:46.089Z,80.97
2022-11-20T16:13:36.098Z,81.26
2022-11-20T16:16:06.238Z,80.68
2022-11-20T16:18:33.108Z,80.79
2022-11-20T16:20:59.833Z,79.71
2022-11-20T16:23:26.317Z,79.41
2022-11-20T16:25:52.995Z,78.41
2022-11-20T16:28:19.607Z,79.15
2022-11-20T16:30:46.829Z,79.29
2022-11-20T16:33:18.246Z,78.62
2022-11-20T16:35:44.957Z,78.58
2022-11-20T16:38:11.477Z,78.39
2022-11-20T16:40:37.948Z,78.65
2022-11-20T16:43:11.517Z,79.05
2022-11-20T16:45:45.540Z,79.85
2022-11-20T16:48:16.645Z,79.64
2022-11-20T16:50:48.400Z,80.80
2022-11-20T16:53:14.972Z,80.79
2022-11-20T16:55:41.608Z,80.04
2022-11-20T16:58:08.140Z,81.04
2022-11-20T17:00:39.972Z,80.58
2022-11-20T17:03:06.934Z,81.10
2022-11-20T17:05:34.822Z,81.49
2022-11-20T17:08:01.537Z,81.92
2022-11-20T17:10:28.121Z,82.09
2022-11-20T17:12:54.662Z,82.37
2022-11-20T17:15:21.222Z,82.35
2022-11-20T17:17:47.679Z,82.00
2022-11-20T17:20:14.196Z,81.85
2022-11-20T17:22:40.719Z,82.22
2022-11-20T17:25:07.583Z,82.19
2022-11-20T17:27:34.055Z,81.98
2022-11-20T17:30:00.612Z,82.23
2022-11-20T17:32:27.117Z,83.16
2022-11-20T17:34:53.680Z,82.64
2022-11-20T17:37:20.161Z,82.45
2022-11-20T17:39:46.878Z,82.53
2022-11-20T17:42:29.453Z,83.41
2022-11-20T17:44:58.674Z,83.48
2022-11-20T17:47:25.987Z,83.37
2022-11-20T17:49:53.601Z,84.12
2022-11-20T17:52:20.367Z,84.92
2022-11-20T17:54:46.874Z,85.07
2022-11-20T17:57:32.019Z,84.69
2022-11-20T17:59:58.545Z,85.18
2022-11-20T18:02:25.078Z,85.78
2022-11-20T18:04:51.589Z,86.80
2022-11-20T18:07:18.126Z,86.30
2022-11-20T18:09:44.855Z,86.04
2022-11-20T18:12:11.411Z,86.38
2022-11-20T18:14:37.952Z,86.96
2022-11-20T18:17:07.930Z,86.88
2022-11-20T18:19:44.688Z,87.21
2022-11-20T18:22:19.831Z,87.09
2022-11-20T18:24:46.398Z,87.13
2022-11-20T18:27:19.345Z,88.12
2022-11-20T18:29:48.965Z,86.72
2022-11-20T18:32:15.527Z,86.36
2022-11-20T18:34:42.037Z,85.70
2022-11-20T18:37:09.825Z,86.85
2022-11-20T18:39:36.852Z,85.95
2022-11-20T18:42:22.193Z,86.48
2022-11-20T18:44:51.401Z,86.82
2022-11-20T18:47:19.342Z,87.34
2022-11-20T18:49:51.257Z,87.34
2022-11-20T18:52:23.436Z,87.59
2022-11-20T18:54:50.837Z,87.62
2022-11-20T18:57:20.041Z,87.89
2022-11-20T18:59:46.804Z,86.78
2022-11-20T19:02:15.719Z,87.52
2022-11-20T19:04:42.536Z,86.83
2022-11-20T19:07:12.072Z,87.23
2022-11-20T19:09:43.706Z,86.83
2022-11-20T19:12:12.117Z,86.19
2022-11-20T19:14:38.834Z,86.64
2022-11-20T19:17:06.884Z,86.66
2022-11-20T19:19:36.596Z,86.31
2022-11-20T19:22:04.116Z,86.75
2022-11-20T19:24:30.610Z,86.86
2022-11-20T19:26:57.220Z,88.14
2022-11-20T19:29:25.041Z,88.73
2022-11-20T19:31:51.912Z,88.85
2022-11-20T19:34:18.441Z,88.63
2022-11-20T19:36:45.261Z,89.03
2022-11-20T19:39:12.421Z,89.58
2022-11-20T19:41:40.437Z,89.84
2022-11-20T19:44:14.956Z,88.08
2022-11-20T19:46:42.205Z,88.82
2022-11-20T19:49:11.421Z,89.54
2022-11-20T19:51:39.849Z,88.61
2022-11-20T19:54:06.606Z,89.42
2022-11-20T19:56:34.186Z,89.29
2022-11-20T19:59:01.760Z,89.46
2022-11-20T20:01:30.995Z,88.36
2022-11-20T20:04:02.543Z,89.74
2022-11-20T20:06:30.080Z,89.41
2022-11-20T20:08:59.417Z,89.95
2022-11-20T20:11:28.122Z,89.33
2022-11-20T20:13:56.053Z,89.97
2022-11-20T20:16:24.186Z,90.15
2022-11-20T20:18:58.253Z,89.65
2022-11-20T20:21:25.091Z,90.27
2022-11-20T20:23:54.136Z,89.12
2022-11-20T20:26:23.022Z,89.97
2022-11-20T20:28:50.072Z,90.21
2022-11-20T20:31:21.783Z,88.89
2022-11-20T20:33:48.671Z,88.53
2022-11-20T20:36:18.010Z,88.24
2022-11-20T20:38:58.261Z,87.77
2022-11-20T20:41:25.062Z,87.38
2022-11-20T20:44:10.928Z,86.70
2022-11-20T20:46:37.500Z,87.41
2022-11-20T20:49:04.165Z,85.76
2022-11-20T20:51:30.834Z,85.65
2022-11-20T20:53:57.415Z,85.98
2022-11-20T20:56:29.286Z,85.94
2022-11-20T20:58:55.839Z,86.29
2022-11-20T21:01:24.291Z,86.69
2022-11-20T21:03:50.900Z,85.31
2022-11-20T21:06:17.475Z,85.65
2022-11-20T21:08:44.795Z,86.56
2022-11-20T21:11:18.312Z,86.01
2022-11-20T21:13:46.635Z,85.61
2022-11-20T21:16:15.012Z,85.13
2022-11-20T21:18:41.608Z,85.81
2022-11-20T21:21:30.055Z,86.01
2022-11-20T21:23:56.876Z,84.77
2022-11-20T21:26:23.433Z,84.90
2022-11-20T21:28:50.154Z,85.87
2022-11-20T21:31:24.864Z,85.87
2022-11-20T21:33:52.786Z,84.80
2022-11-20T21:36:24.753Z,85.67
2022-11-20T21:38:53.899Z,84.92
2022-11-20T21:41:20.709Z,85.68
2022-11-20T21:44:09.174Z,85.98
2022-11-20T21:46:38.192Z,84.90
2022-11-20T21:49:05.268Z,84.88
2022-11-20T21:51:32.037Z,85.21
2022-11-20T21:53:59.035Z,85.91
2022-11-20T21:56:26.673Z,85.86
2022-11-20T21:58:54.839Z,85.76
2022-11-20T22:01:30.012Z,85.25
2022-11-20T22:03:59.167Z,86.21
2022-11-20T22:06:27.145Z,85.12
2022-11-20T22:08:53.712Z,84.75
2022-11-20T22:11:21.810Z,85.75
2022-11-20T22:14:07.322Z,84.41
2022-11-20T22:16:37.995Z,85.35
2022-11-20T22:19:05.875Z,83.92
2022-11-20T22:21:32.742Z,84.06
2022-11-20T22:23:59.653Z,84.29
2022-11-20T22:26:28.584Z,85.14
2022-11-20T22:28:57.200Z,83.91
2022-11-20T22:31:26.286Z,84.84
2022-11-20T22:33:53.485Z,85.38
2022-11-20T22:36:23.022Z,85.16
2022-11-20T22:38:49.965Z,86.15
2022-11-20T22:41:27.370Z,85.72
2022-11-20T22:43:58.400Z,85.75
2022-11-20T22:46:26.623Z,85.26
2022-11-20T22:48:55.052Z,84.77
2022-11-20T22:51:24.090Z,85.23
2022-11-20T22:53:51.535Z,86.50
2022-11-20T22:56:18.703Z,85.15
2022-11-20T22:58:47.710Z,85.18
2022-11-20T23:01:32.501Z,86.03
2022-11-20T23:04:01.269Z,85.36
2022-11-20T23:06:28.468Z,86.36
2022-11-20T23:08:55.562Z,86.75
2022-11-20T23:11:25.113Z,87.44
2022-11-20T23:13:59.454Z,86.85
2022-11-20T23:16:29.048Z,87.66
2022-11-20T23:18:58.115Z,87.80
2022-11-20T23:21:25.465Z,88.11
2022-11-20T23:23:54.167Z,88.05
2022-11-20T23:26:22.773Z,87.37
2022-11-20T23:28:49.462Z,87.75
2022-11-20T23:31:16.665Z,88.01
2022-11-20T23:33:45.721Z,87.02
2022-11-20T23:36:13.351Z,87.35
2022-11-20T23:38:40.542Z,87.11
2022-11-20T23:41:07.431Z,87.45
2022-11-20T23:43:34.467Z,87.00
2022-11-20T23:46:03.233Z,87.21
2022-11-20T23:48:31.967Z,88.12
2022-11-20T23:50:58.905Z,87.72
2022-11-20T23:53:26.111Z,87.83
2022-11-20T23:55:56.980Z,88.39
2022-11-20T23:58:29.797Z,87.77
